createdAt,value
2024-02-28T00:03:28.021Z,101376.56
2024-02-28T00:08:29.940Z,101381.19
2024-02-28T00:13:32.162Z,101381.13
2024-02-28T00:18:34.162Z,101379.56
2024-02-28T00:23:36.141Z,101380.41
2024-02-28T00:28:38.170Z,101374.81
2024-02-28T00:33:40.162Z,101382.03
2024-02-28T00:38:42.404Z,101387.06
2024-02-28T00:43:44.441Z,101385.34
2024-02-28T00:48:46.557Z,101398.44
2024-02-28T00:53:48.537Z,101391.53
2024-02-28T00:58:50.787Z,101402.91
2024-02-28T01:03:52.892Z,101408.25
2024-02-28T01:08:54.840Z,101399.59
2024-02-28T01:13:56.957Z,101398.41
2024-02-28T01:18:59.189Z,101405.69
2024-02-28T01:24:01.383Z,101399.25
2024-02-28T01:29:04.305Z,101390.63
2024-02-28T01:34:06.357Z,101389.66
2024-02-28T01:39:08.539Z,101390.53
2024-02-28T01:44:10.669Z,101384.19
2024-02-28T01:49:12.559Z,101381.75
2024-02-28T01:54:15.020Z,101375.38
2024-02-28T01:59:18.830Z,101366.50
2024-02-28T02:04:20.641Z,101374.63
2024-02-28T02:09:22.775Z,101382.25
2024-02-28T02:14:24.719Z,101383.13
2024-02-28T02:19:27.229Z,101384.88
2024-02-28T02:24:29.197Z,101380.59
2024-02-28T02:29:31.259Z,101374.38
2024-02-28T02:34:33.589Z,101375.22
2024-02-28T02:39:35.673Z,101381.34
2024-02-28T02:44:37.802Z,101388.47
2024-02-28T02:49:39.784Z,101387.47
2024-02-28T02:54:41.920Z,101389.31
2024-02-28T02:59:43.856Z,101407.88
2024-02-28T03:04:46.025Z,101406.91
2024-02-28T03:09:48.071Z,101398.22
2024-02-28T03:14:50.212Z,101395.44
2024-02-28T03:19:52.315Z,101397.47
2024-02-28T03:24:54.321Z,101401.78
2024-02-28T03:29:56.373Z,101423.78
2024-02-28T03:34:58.357Z,101411.38
2024-02-28T03:40:00.445Z,101427.25
2024-02-28T03:45:02.439Z,101441.44
2024-02-28T03:50:05.370Z,101443.25
2024-02-28T03:55:07.926Z,101436.94
2024-02-28T04:00:10.480Z,101435.81
2024-02-28T04:05:12.376Z,101430.63
2024-02-28T04:10:14.401Z,101425.22
2024-02-28T04:15:16.563Z,101428.88
2024-02-28T04:20:18.976Z,101432.50
2024-02-28T04:25:21.001Z,101440.31
2024-02-28T04:30:23.017Z,101432.34
2024-02-28T04:35:25.100Z,101430.53
2024-02-28T04:40:27.028Z,101440.31
2024-02-28T04:45:30.403Z,101436.59
2024-02-28T04:50:32.437Z,101430.63
2024-02-28T04:55:34.381Z,101434.28
2024-02-28T05:00:36.358Z,101432.53
2024-02-28T05:05:38.374Z,101439.66
2024-02-28T05:10:41.588Z,101448.38
2024-02-28T05:15:43.425Z,101451.84
2024-02-28T05:20:45.418Z,101449.31
2024-02-28T05:25:47.960Z,101452.69
2024-02-28T05:30:51.193Z,101454.25
2024-02-28T05:35:53.210Z,101448.97
2024-02-28T05:40:55.311Z,101458.69
2024-02-28T05:45:57.399Z,101473.41
2024-02-28T05:50:59.568Z,101475.13
2024-02-28T05:56:01.593Z,101482.84
2024-02-28T06:01:03.881Z,101487.06
2024-02-28T06:06:06.604Z,101497.75
2024-02-28T06:11:09.133Z,101499.59
2024-02-28T06:16:17.702Z,101506.59
2024-02-28T06:21:19.791Z,101505.63
2024-02-28T06:26:22.356Z,101510.94
2024-02-28T06:31:24.441Z,101517.25
2024-02-28T06:36:26.529Z,101517.13
2024-02-28T06:41:28.676Z,101517.25
2024-02-28T06:46:30.530Z,101526.09
2024-02-28T06:51:32.798Z,101534.88
2024-02-28T06:56:34.907Z,101538.50
2024-02-28T07:01:37.005Z,101542.88
2024-02-28T07:06:39.493Z,101542.88
2024-02-28T07:11:41.461Z,101540.19
2024-02-28T07:16:43.826Z,101541.88
2024-02-28T07:21:46.300Z,101543.00
2024-02-28T07:26:48.377Z,101551.81
2024-02-28T07:31:53.094Z,101561.38
2024-02-28T07:36:55.357Z,101566.00
2024-02-28T07:41:57.539Z,101578.22
2024-02-28T07:47:00.226Z,101593.16
2024-02-28T07:52:02.489Z,101595.09
2024-02-28T07:57:04.771Z,101590.53
2024-02-28T08:02:07.007Z,101591.19
2024-02-28T08:07:09.250Z,101584.19
2024-02-28T08:12:11.975Z,101584.06
2024-02-28T08:17:15.172Z,101573.66
2024-02-28T08:22:17.230Z,101591.34
2024-02-28T08:27:19.267Z,101595.16
2024-02-28T08:32:22.160Z,101590.31
2024-02-28T08:37:24.239Z,101598.31
2024-02-28T08:42:27.289Z,101600.94
2024-02-28T08:47:29.286Z,101608.09
2024-02-28T08:52:31.456Z,101610.72
2024-02-28T08:57:33.679Z,101629.25
2024-02-28T09:02:36.305Z,101629.19
2024-02-28T09:07:38.186Z,101632.75
2024-02-28T09:12:40.286Z,101630.84
2024-02-28T09:17:42.512Z,101637.97
2024-02-28T09:22:44.405Z,101631.84
2024-02-28T09:27:46.521Z,101622.88
2024-02-28T09:32:49.936Z,101614.94
2024-02-28T09:37:52.144Z,101615.88
2024-02-28T09:43:01.649Z,101614.28
2024-02-28T09:48:05.150Z,101611.06
2024-02-28T09:53:10.893Z,101614.06
2024-02-28T09:58:13.484Z,101605.34
2024-02-28T10:03:20.454Z,101603.44
2024-02-28T10:08:22.645Z,101600.94
2024-02-28T10:13:24.678Z,101604.47
2024-02-28T10:18:27.675Z,101607.09
2024-02-28T10:23:29.924Z,101614.03
2024-02-28T10:28:32.118Z,101617.69
2024-02-28T10:33:34.957Z,101617.59
2024-02-28T10:38:40.065Z,101623.94
2024-02-28T10:43:43.253Z,101616.69
2024-02-28T10:48:45.505Z,101623.81
2024-02-28T10:53:51.165Z,101623.06
2024-02-28T10:58:54.425Z,101624.16
2024-02-28T11:03:57.722Z,101625.63
2024-02-28T11:09:01.901Z,101621.22
2024-02-28T11:14:03.848Z,101610.63
2024-02-28T11:19:06.082Z,101605.25
2024-02-28T11:24:08.121Z,101605.59
2024-02-28T11:29:10.555Z,101592.97
2024-02-28T11:34:12.766Z,101594.56
2024-02-28T11:39:15.226Z,101594.63
2024-02-28T11:44:18.473Z,101587.56
2024-02-28T11:49:20.685Z,101582.38
2024-02-28T11:54:22.801Z,101584.91
2024-02-28T11:59:24.866Z,101578.06
2024-02-28T12:04:27.043Z,101575.34
2024-02-28T12:09:38.195Z,101574.34
2024-02-28T12:14:44.891Z,101562.81
2024-02-28T12:19:46.831Z,101552.44
2024-02-28T12:24:48.986Z,101548.66
2024-02-28T12:29:50.939Z,101545.16
2024-02-28T12:34:52.955Z,101527.47
2024-02-28T12:39:54.973Z,101519.59
2024-02-28T12:44:57.158Z,101516.22
2024-02-28T12:49:59.251Z,101519.59
2024-02-28T12:55:02.478Z,101513.31
2024-02-28T13:00:05.131Z,101513.41
2024-02-28T13:05:07.548Z,101499.13
2024-02-28T13:10:10.857Z,101497.50
2024-02-28T13:15:12.887Z,101487.00
2024-02-28T13:20:14.988Z,101486.81
2024-02-28T13:25:19.657Z,101475.91
2024-02-28T13:30:21.619Z,101469.34
2024-02-28T13:35:23.593Z,101473.56
2024-02-28T13:40:25.475Z,101463.97
2024-02-28T13:45:27.642Z,101461.22
2024-02-28T13:50:33.257Z,101473.63
2024-02-28T13:55:35.524Z,101463.09
2024-02-28T14:00:37.613Z,101475.38
2024-02-28T14:05:39.789Z,101467.50
2024-02-28T14:10:42.015Z,101465.00
2024-02-28T14:15:44.102Z,101463.94
2024-02-28T14:20:46.648Z,101463.03
2024-02-28T14:25:49.163Z,101450.69
2024-02-28T14:30:51.375Z,101449.84
2024-02-28T14:35:53.419Z,101457.81
2024-02-28T14:40:55.409Z,101453.34
2024-02-28T14:45:57.525Z,101458.66
2024-02-28T14:50:59.613Z,101457.69
2024-02-28T14:56:01.851Z,101452.41
2024-02-28T15:01:04.445Z,101441.84
2024-02-28T15:06:06.492Z,101439.19
2024-02-28T15:11:08.478Z,101436.66
2024-02-28T15:16:10.763Z,101434.78
2024-02-28T15:21:12.991Z,101434.81
2024-02-28T15:26:15.465Z,101435.69
2024-02-28T15:31:17.637Z,101423.34
2024-02-28T15:36:19.686Z,101412.88
2024-02-28T15:41:21.718Z,101407.50
2024-02-28T15:46:23.712Z,101410.03
2024-02-28T15:51:26.065Z,101403.91
2024-02-28T15:56:28.158Z,101402.19
2024-02-28T16:01:30.146Z,101392.50
2024-02-28T16:06:37.413Z,101384.50
2024-02-28T16:11:44.062Z,101399.88
2024-02-28T16:16:46.590Z,101381.03
2024-02-28T16:21:50.766Z,101382.97
2024-02-28T16:26:52.929Z,101385.78
2024-02-28T16:31:56.815Z,101367.38
2024-02-28T16:36:59.338Z,101362.91
2024-02-28T16:42:01.376Z,101353.16
2024-02-28T16:47:03.681Z,101361.97
2024-02-28T16:52:05.740Z,101355.00
2024-02-28T16:57:08.456Z,101354.16
2024-02-28T17:02:10.513Z,101356.81
2024-02-28T17:07:17.192Z,101371.94
2024-02-28T17:12:19.431Z,101357.75
2024-02-28T17:17:21.938Z,101355.94
2024-02-28T17:22:23.940Z,101356.06
2024-02-28T17:27:26.456Z,101356.75
2024-02-28T17:32:28.558Z,101349.94
2024-02-28T17:37:30.986Z,101357.72
2024-02-28T17:42:33.073Z,101347.81
2024-02-28T17:47:36.176Z,101347.09
2024-02-28T17:52:40.919Z,101344.38
2024-02-28T17:57:43.623Z,101342.53
2024-02-28T18:02:45.615Z,101364.41
2024-02-28T18:07:47.542Z,101359.38
2024-02-28T18:12:49.787Z,101356.59
2024-02-28T18:17:51.899Z,101356.63
2024-02-28T18:22:54.021Z,101353.16
2024-02-28T18:27:56.196Z,101346.00
2024-02-28T18:32:58.186Z,101346.84
2024-02-28T18:38:01.305Z,101339.72
2024-02-28T18:43:04.263Z,101330.81
2024-02-28T18:48:08.045Z,101332.63
2024-02-28T18:53:10.088Z,101330.06
2024-02-28T18:58:12.268Z,101320.41
2024-02-28T19:03:14.695Z,101312.53
2024-02-28T19:08:19.784Z,101311.72
2024-02-28T19:13:21.796Z,101319.53
2024-02-28T19:18:23.666Z,101301.94
2024-02-28T19:23:25.648Z,101304.63
2024-02-28T19:28:28.776Z,101316.84
2024-02-28T19:33:30.792Z,101312.41
2024-02-28T19:38:33.412Z,101303.66
2024-02-28T19:43:35.759Z,101311.66
2024-02-28T19:48:43.388Z,101310.63
2024-02-28T19:53:46.571Z,101305.22
2024-02-28T19:58:49.378Z,101307.97
2024-02-28T20:03:51.539Z,101300.97
2024-02-28T20:08:53.508Z,101297.47
2024-02-28T20:13:55.625Z,101287.72
2024-02-28T20:18:57.605Z,101283.25
2024-02-28T20:23:59.565Z,101287.69
2024-02-28T20:29:02.065Z,101285.03
2024-02-28T20:34:04.089Z,101269.88
2024-02-28T20:39:06.226Z,101272.66
2024-02-28T20:44:12.008Z,101262.88
2024-02-28T20:49:14.028Z,101261.84
2024-02-28T20:54:15.932Z,101255.91
2024-02-28T20:59:17.784Z,101259.56
2024-02-28T21:04:19.980Z,101249.66
2024-02-28T21:09:22.223Z,101245.56
2024-02-28T21:14:24.240Z,101245.56
2024-02-28T21:19:26.982Z,101234.97
2024-02-28T21:24:29.075Z,101233.25
2024-02-28T21:29:31.015Z,101228.03
2024-02-28T21:34:33.121Z,101222.16
2024-02-28T21:39:35.370Z,101220.44
2024-02-28T21:44:37.418Z,101220.50
2024-02-28T21:49:42.018Z,101210.09
2024-02-28T21:54:44.549Z,101208.88
2024-02-28T21:59:48.489Z,101206.47
2024-02-28T22:04:51.995Z,101207.88
2024-02-28T22:09:54.158Z,101196.66
2024-02-28T22:14:56.176Z,101193.88
2024-02-28T22:19:58.223Z,101186.72
2024-02-28T22:25:00.377Z,101175.22
2024-02-28T22:30:02.733Z,101166.28
2024-02-28T22:35:06.532Z,101159.38
2024-02-28T22:40:09.203Z,101152.22
2024-02-28T22:45:12.310Z,101155.91
2024-02-28T22:50:14.474Z,101147.09
2024-02-28T22:55:20.877Z,101154.88
2024-02-28T23:00:34.372Z,101153.13
2024-02-28T23:05:36.459Z,101146.22
2024-02-28T23:10:38.593Z,101141.84
2024-02-28T23:15:42.057Z,101142.53
2024-02-28T23:20:44.577Z,101134.56
2024-02-28T23:25:46.637Z,101125.63
2024-02-28T23:30:48.565Z,101130.06
2024-02-28T23:35:50.628Z,101127.38
2024-02-28T23:40:52.563Z,101125.41
2024-02-28T23:45:54.438Z,101112.22
2024-02-28T23:50:56.691Z,101113.19
2024-02-28T23:55:58.626Z,101114.13
